ウィニペグ の空港の天気 - METARとTAF

ウィニペグ国際空港 ( CYWG / YWG ) - カナダ マニトバ州ウィニペグ
飛行場実況気象(Metar)
観測時間04/21 09:00 CDT (04/21 14:00 UTC)
風向・風速東北東 2m/s
視程10km以上
天気現象
全天の8割程度の雲 雲底高度 3660m
全天の8割程度の雲 雲底高度 7620m
気温8℃
湿度61%
気圧1016.9hPa
METARCYWG 211400Z 06003KT 15SM BKN120 BKN250 08/01 A3001 RMK AC6CI1 SLP169
過去の天気等 Google飛行場航空写真 Wunderground天気予報

過去48時間のMETAR

飛行場予報(TAF)
発表時間: 4/21 06:38 CDT (4/21 11:38 UTC)
予報対象時間: 21日7時 CDT ~ 22日7時 CDT
風向・風速北東 3m/s
視程10km以上
少しの雲 雲底高度 3050m
全天の4割程度の雲 雲底高度 5490m
21日12時 CDT から
風向・風速東 3m/s
視程10km以上
全天の4割程度の雲 雲底高度 2130m
全天の8割程度の雲 雲底高度 6400m
21日18時 CDT から
風向・風速不定 2m/s
視程10km以上
全天の8割程度の雲 雲底高度 2440m
TAF CYWG 211138Z 2112/2212 05005KT P6SM FEW100 SCT180
FM211700 10005KT P6SM SCT070 BKN210
FM212300 VRB03KT P6SM BKN080 RMK NXT FCST BY 211800Z